createdAt,value
2017-11-09T00:06:15.504Z,7.6
2017-11-09T00:16:29.277Z,7.7
2017-11-09T00:26:43.556Z,7.7
2017-11-09T00:36:57.277Z,7.6
2017-11-09T00:47:11.839Z,7.6
2017-11-09T00:57:27.135Z,7.6
2017-11-09T01:07:42.517Z,7.6
2017-11-09T01:17:56.317Z,7.5
2017-11-09T01:28:10.433Z,7.4
2017-11-09T01:38:24.786Z,7.4
2017-11-09T01:48:38.978Z,7.6
2017-11-09T01:58:54.676Z,7.5
2017-11-09T02:09:08.567Z,7.5
2017-11-09T02:19:22.994Z,7.6
2017-11-09T02:29:38.482Z,7.4
2017-11-09T02:39:53.828Z,7.5
2017-11-09T02:50:09.300Z,7.6
2017-11-09T03:00:23.576Z,7.5
2017-11-09T03:10:38.093Z,7.6
2017-11-09T03:20:52.449Z,7.6
2017-11-09T03:31:06.689Z,7.6
2017-11-09T03:41:20.586Z,7.5
2017-11-09T03:51:35.198Z,7.5
2017-11-09T04:01:49.169Z,7.6
2017-11-09T04:12:04.741Z,7.6
2017-11-09T04:22:19.788Z,7.6
2017-11-09T04:32:35.010Z,7.6
2017-11-09T04:42:49.249Z,7.6
2017-11-09T04:53:03.170Z,7.6
2017-11-09T05:03:17.440Z,7.7
2017-11-09T05:13:32.102Z,7.7
2017-11-09T05:23:47.264Z,7.7
2017-11-09T05:34:01.734Z,7.7
2017-11-09T05:44:16.549Z,7.6
2017-11-09T05:54:30.865Z,7.7
2017-11-09T06:04:45.546Z,7.7
2017-11-09T06:14:59.597Z,7.7
2017-11-09T06:25:13.293Z,7.7
2017-11-09T06:35:27.789Z,7.8
2017-11-09T06:45:41.868Z,7.7
2017-11-09T06:55:56.891Z,7.8
2017-11-09T07:06:10.790Z,7.9
2017-11-09T07:16:24.981Z,7.8
2017-11-09T07:26:39.259Z,7.9
2017-11-09T07:36:54.360Z,7.9
2017-11-09T07:47:10.117Z,7.9
2017-11-09T07:57:23.947Z,8
2017-11-09T08:07:38.249Z,8.1
2017-11-09T08:17:53.582Z,8.1
2017-11-09T08:28:08.030Z,8.1
2017-11-09T08:38:23.565Z,8.1
2017-11-09T08:48:37.788Z,8.3
2017-11-09T08:58:52.088Z,8.7
2017-11-09T09:09:06.410Z,9.2
2017-11-09T09:19:21.008Z,9.1
2017-11-09T09:29:36.028Z,9
2017-11-09T09:39:50.770Z,9.2
2017-11-09T09:50:04.946Z,9.3
2017-11-09T10:00:20.227Z,9.3
2017-11-09T10:10:34.531Z,8.9
2017-11-09T10:20:48.437Z,8.8
2017-11-09T10:31:03.080Z,8.8
2017-11-09T10:41:18.360Z,9.4
2017-11-09T10:51:34.034Z,9.2
2017-11-09T11:01:48.669Z,9.4
2017-11-09T11:12:02.842Z,9.2
2017-11-09T11:22:17.736Z,9.1
2017-11-09T11:32:33.056Z,9.1
2017-11-09T11:42:46.994Z,9.2
2017-11-09T11:53:01.153Z,9.3
2017-11-09T12:03:16.808Z,9.1
2017-11-09T12:13:31.360Z,8.8
2017-11-09T12:23:45.926Z,8.9
2017-11-09T12:34:01.336Z,9.2
2017-11-09T12:44:16.722Z,9.1
2017-11-09T12:54:31.148Z,8.9
2017-11-09T13:04:45.802Z,8.8
2017-11-09T13:15:00.994Z,8.8
2017-11-09T13:25:15.963Z,8.8
2017-11-09T13:35:30.671Z,8.7
2017-11-09T13:45:45.737Z,8.7
2017-11-09T13:56:00.292Z,8.9
2017-11-09T14:06:14.127Z,8.9
2017-11-09T14:16:27.980Z,8.9
2017-11-09T14:26:42.774Z,8.6
2017-11-09T14:36:57.329Z,8.9
2017-11-09T14:47:13.117Z,8.8
2017-11-09T14:57:25.517Z,8.6
2017-11-09T15:07:40.251Z,8.6
2017-11-09T15:17:55.979Z,8.4
2017-11-09T15:28:11.180Z,8.2
2017-11-09T15:38:25.868Z,8.4
2017-11-09T15:48:40.236Z,8.5
2017-11-09T15:58:54.059Z,8.4
2017-11-09T16:09:08.613Z,7.8
2017-11-09T16:19:22.728Z,7.5
2017-11-09T16:29:37.744Z,7.4
2017-11-09T16:39:51.549Z,7.6
2017-11-09T16:50:06.179Z,7.6
2017-11-09T17:00:19.914Z,7.6
2017-11-09T17:10:34.320Z,7.8
2017-11-09T17:20:49.902Z,8
2017-11-09T17:31:05.104Z,8.1
2017-11-09T17:41:19.842Z,8.2
2017-11-09T17:51:34.032Z,8.2
2017-11-09T18:01:48.926Z,8.3
2017-11-09T18:12:03.631Z,8.3
2017-11-09T18:22:17.828Z,8.3
2017-11-09T18:32:33.367Z,8.4
2017-11-09T18:42:47.935Z,8.4
2017-11-09T18:53:02.660Z,8.5
2017-11-09T19:03:17.229Z,8.5
2017-11-09T19:13:32.682Z,8.5
2017-11-09T19:23:48.229Z,8.5
2017-11-09T19:34:03.447Z,8.5
2017-11-09T19:44:17.492Z,8.4
2017-11-09T19:54:31.714Z,8.5
2017-11-09T20:04:46.002Z,8.2
2017-11-09T20:15:01.662Z,8.1
2017-11-09T20:25:16.075Z,7.9
2017-11-09T20:35:30.122Z,7.9
2017-11-09T20:45:43.828Z,7.9
2017-11-09T20:55:57.978Z,7.9
2017-11-09T21:06:13.594Z,7.9
2017-11-09T21:16:28.478Z,7.9
2017-11-09T21:26:43.798Z,8.1
2017-11-09T21:36:58.083Z,8.1
2017-11-09T21:47:12.366Z,8.1
2017-11-09T21:57:26.545Z,8.1
2017-11-09T22:07:41.381Z,8.2
2017-11-09T22:17:56.696Z,8.1
2017-11-09T22:28:12.333Z,8.2
2017-11-09T22:38:27.850Z,8
2017-11-09T22:48:42.032Z,8
2017-11-09T22:58:57.159Z,8.1
2017-11-09T23:09:12.138Z,8.1
2017-11-09T23:19:27.522Z,8.1
2017-11-09T23:29:41.535Z,8.1
2017-11-09T23:39:56.182Z,8.1
2017-11-09T23:50:10.027Z,8.1
